sensor_id;sensor_type;location;lat;lon;timestamp;temperature;humidity
37998;DHT22;24079;51.824;4.682;2023-04-03T00:01:37;5.20;99.90
37998;DHT22;24079;51.824;4.682;2023-04-03T00:04:07;5.30;99.90
37998;DHT22;24079;51.824;4.682;2023-04-03T00:06:32;5.20;99.90
37998;DHT22;24079;51.824;4.682;2023-04-03T00:08:59;5.20;99.90
37998;DHT22;24079;51.824;4.682;2023-04-03T00:11:24;5.10;99.90
37998;DHT22;24079;51.824;4.682;2023-04-03T00:13:50;5.20;99.90
37998;DHT22;24079;51.824;4.682;2023-04-03T00:16:16;5.20;99.90
37998;DHT22;24079;51.824;4.682;2023-04-03T00:18:42;5.10;99.90
37998;DHT22;24079;51.824;4.682;2023-04-03T00:21:09;5.00;99.90
37998;DHT22;24079;51.824;4.682;2023-04-03T00:23:35;5.00;99.90
37998;DHT22;24079;51.824;4.682;2023-04-03T00:26:01;5.00;99.90
37998;DHT22;24079;51.824;4.682;2023-04-03T00:28:27;5.00;99.90
37998;DHT22;24079;51.824;4.682;2023-04-03T00:30:52;5.00;99.90
37998;DHT22;24079;51.824;4.682;2023-04-03T00:33:19;5.00;99.90
37998;DHT22;24079;51.824;4.682;2023-04-03T00:35:47;5.00;99.90
37998;DHT22;24079;51.824;4.682;2023-04-03T00:38:13;5.00;99.90
37998;DHT22;24079;51.824;4.682;2023-04-03T00:40:43;5.00;99.90
37998;DHT22;24079;51.824;4.682;2023-04-03T00:43:23;4.90;99.90
37998;DHT22;24079;51.824;4.682;2023-04-03T00:45:51;4.90;99.90
37998;DHT22;24079;51.824;4.682;2023-04-03T00:48:30;4.90;99.90
37998;DHT22;24079;51.824;4.682;2023-04-03T00:50:58;4.80;99.90
37998;DHT22;24079;51.824;4.682;2023-04-03T00:53:31;4.90;99.90
37998;DHT22;24079;51.824;4.682;2023-04-03T00:55:58;4.80;99.90
37998;DHT22;24079;51.824;4.682;2023-04-03T00:58:34;4.80;99.90
37998;DHT22;24079;51.824;4.682;2023-04-03T01:01:05;4.80;99.90
37998;DHT22;24079;51.824;4.682;2023-04-03T01:03:32;4.80;99.90
37998;DHT22;24079;51.824;4.682;2023-04-03T01:05:58;4.80;99.90
37998;DHT22;24079;51.824;4.682;2023-04-03T01:08:23;4.80;99.90
37998;DHT22;24079;51.824;4.682;2023-04-03T01:10:49;4.70;99.90
37998;DHT22;24079;51.824;4.682;2023-04-03T01:13:25;4.70;99.90
37998;DHT22;24079;51.824;4.682;2023-04-03T01:15:51;4.70;99.90
37998;DHT22;24079;51.824;4.682;2023-04-03T01:18:17;4.70;99.90
37998;DHT22;24079;51.824;4.682;2023-04-03T01:26:18;4.60;99.90
37998;DHT22;24079;51.824;4.682;2023-04-03T01:28:45;4.60;99.90
37998;DHT22;24079;51.824;4.682;2023-04-03T01:31:27;4.50;99.90
37998;DHT22;24079;51.824;4.682;2023-04-03T01:33:54;4.50;99.90
37998;DHT22;24079;51.824;4.682;2023-04-03T01:36:26;4.50;99.90
37998;DHT22;24079;51.824;4.682;2023-04-03T01:38:52;4.50;99.90
37998;DHT22;24079;51.824;4.682;2023-04-03T01:41:19;4.50;99.90
37998;DHT22;24079;51.824;4.682;2023-04-03T01:43:47;4.40;99.90
37998;DHT22;24079;51.824;4.682;2023-04-03T01:46:13;4.40;99.90
37998;DHT22;24079;51.824;4.682;2023-04-03T01:48:39;4.40;99.90
37998;DHT22;24079;51.824;4.682;2023-04-03T01:51:05;4.40;99.90
37998;DHT22;24079;51.824;4.682;2023-04-03T01:53:32;4.40;99.90
37998;DHT22;24079;51.824;4.682;2023-04-03T01:55:58;4.30;99.90
37998;DHT22;24079;51.824;4.682;2023-04-03T01:58:24;4.30;99.90
37998;DHT22;24079;51.824;4.682;2023-04-03T02:00:51;4.30;99.90
37998;DHT22;24079;51.824;4.682;2023-04-03T02:03:17;4.30;99.90
37998;DHT22;24079;51.824;4.682;2023-04-03T02:05:43;4.20;99.90
37998;DHT22;24079;51.824;4.682;2023-04-03T02:08:09;4.20;99.90
37998;DHT22;24079;51.824;4.682;2023-04-03T02:10:35;4.20;99.90
37998;DHT22;24079;51.824;4.682;2023-04-03T02:13:02;4.20;99.90
37998;DHT22;24079;51.824;4.682;2023-04-03T02:15:28;4.20;99.90
37998;DHT22;24079;51.824;4.682;2023-04-03T02:17:54;4.20;99.90
37998;DHT22;24079;51.824;4.682;2023-04-03T02:20:20;4.10;99.90
37998;DHT22;24079;51.824;4.682;2023-04-03T02:22:46;4.10;99.90
37998;DHT22;24079;51.824;4.682;2023-04-03T02:25:12;4.10;99.90
37998;DHT22;24079;51.824;4.682;2023-04-03T02:27:38;4.10;99.90
37998;DHT22;24079;51.824;4.682;2023-04-03T02:30:05;4.00;99.90
37998;DHT22;24079;51.824;4.682;2023-04-03T02:32:31;4.00;99.90
37998;DHT22;24079;51.824;4.682;2023-04-03T02:34:58;4.10;99.90
37998;DHT22;24079;51.824;4.682;2023-04-03T02:37:24;4.10;99.90
37998;DHT22;24079;51.824;4.682;2023-04-03T02:39:50;4.00;99.90
37998;DHT22;24079;51.824;4.682;2023-04-03T02:42:16;4.10;99.90
37998;DHT22;24079;51.824;4.682;2023-04-03T02:44:42;4.00;99.90
37998;DHT22;24079;51.824;4.682;2023-04-03T02:47:08;4.10;99.90
37998;DHT22;24079;51.824;4.682;2023-04-03T02:49:33;4.00;99.90
37998;DHT22;24079;51.824;4.682;2023-04-03T02:51:59;3.90;99.90
37998;DHT22;24079;51.824;4.682;2023-04-03T02:54:25;3.90;99.90
37998;DHT22;24079;51.824;4.682;2023-04-03T02:56:54;3.90;99.90
37998;DHT22;24079;51.824;4.682;2023-04-03T02:59:19;3.90;99.90
37998;DHT22;24079;51.824;4.682;2023-04-03T03:01:45;3.90;99.90
37998;DHT22;24079;51.824;4.682;2023-04-03T03:04:11;3.90;99.90
37998;DHT22;24079;51.824;4.682;2023-04-03T03:06:37;3.90;99.90
37998;DHT22;24079;51.824;4.682;2023-04-03T03:09:03;3.90;99.90
37998;DHT22;24079;51.824;4.682;2023-04-03T03:11:29;3.80;99.90
37998;DHT22;24079;51.824;4.682;2023-04-03T03:13:55;3.80;99.90
37998;DHT22;24079;51.824;4.682;2023-04-03T03:16:21;3.80;99.90
37998;DHT22;24079;51.824;4.682;2023-04-03T03:18:47;3.80;99.90
37998;DHT22;24079;51.824;4.682;2023-04-03T03:21:13;3.80;99.90
37998;DHT22;24079;51.824;4.682;2023-04-03T03:23:40;3.70;99.90
37998;DHT22;24079;51.824;4.682;2023-04-03T03:26:08;3.70;99.90
37998;DHT22;24079;51.824;4.682;2023-04-03T03:28:36;3.60;99.90
37998;DHT22;24079;51.824;4.682;2023-04-03T03:31:02;3.70;99.90
37998;DHT22;24079;51.824;4.682;2023-04-03T03:33:28;3.60;99.90
37998;DHT22;24079;51.824;4.682;2023-04-03T03:35:55;3.60;99.90
37998;DHT22;24079;51.824;4.682;2023-04-03T03:38:21;3.50;99.90
37998;DHT22;24079;51.824;4.682;2023-04-03T03:40:48;3.60;99.90
37998;DHT22;24079;51.824;4.682;2023-04-03T03:43:15;3.60;99.90
37998;DHT22;24079;51.824;4.682;2023-04-03T03:45:41;3.60;99.90
37998;DHT22;24079;51.824;4.682;2023-04-03T03:48:07;3.60;99.90
37998;DHT22;24079;51.824;4.682;2023-04-03T03:50:33;3.50;99.90
37998;DHT22;24079;51.824;4.682;2023-04-03T03:52:59;3.60;99.90
37998;DHT22;24079;51.824;4.682;2023-04-03T03:55:25;3.60;99.90
37998;DHT22;24079;51.824;4.682;2023-04-03T03:57:52;3.50;99.90
37998;DHT22;24079;51.824;4.682;2023-04-03T04:00:18;3.50;99.90
37998;DHT22;24079;51.824;4.682;2023-04-03T04:09:15;3.60;99.90
37998;DHT22;24079;51.824;4.682;2023-04-03T04:11:41;3.50;99.90
37998;DHT22;24079;51.824;4.682;2023-04-03T04:14:07;3.50;99.90
37998;DHT22;24079;51.824;4.682;2023-04-03T04:16:33;3.50;99.90
37998;DHT22;24079;51.824;4.682;2023-04-03T04:18:58;3.40;99.90
37998;DHT22;24079;51.824;4.682;2023-04-03T04:21:24;3.50;99.90
37998;DHT22;24079;51.824;4.682;2023-04-03T04:23:49;3.40;99.90
37998;DHT22;24079;51.824;4.682;2023-04-03T04:26:15;3.40;99.90
37998;DHT22;24079;51.824;4.682;2023-04-03T04:28:41;3.40;99.90
37998;DHT22;24079;51.824;4.682;2023-04-03T04:31:07;3.50;99.90
37998;DHT22;24079;51.824;4.682;2023-04-03T04:33:33;3.40;99.90
37998;DHT22;24079;51.824;4.682;2023-04-03T04:35:59;3.40;99.90
37998;DHT22;24079;51.824;4.682;2023-04-03T04:38:25;3.40;99.90
37998;DHT22;24079;51.824;4.682;2023-04-03T04:40:50;3.30;99.90
37998;DHT22;24079;51.824;4.682;2023-04-03T04:43:16;3.30;99.90
37998;DHT22;24079;51.824;4.682;2023-04-03T04:45:42;3.20;99.90
37998;DHT22;24079;51.824;4.682;2023-04-03T04:48:07;3.30;99.90
37998;DHT22;24079;51.824;4.682;2023-04-03T04:50:33;3.20;99.90
37998;DHT22;24079;51.824;4.682;2023-04-03T04:52:59;3.20;99.90
37998;DHT22;24079;51.824;4.682;2023-04-03T04:55:24;3.20;99.90
37998;DHT22;24079;51.824;4.682;2023-04-03T04:57:50;3.10;99.90
37998;DHT22;24079;51.824;4.682;2023-04-03T05:00:18;3.20;99.90
37998;DHT22;24079;51.824;4.682;2023-04-03T05:02:44;3.10;99.90
37998;DHT22;24079;51.824;4.682;2023-04-03T05:05:09;3.10;99.90
37998;DHT22;24079;51.824;4.682;2023-04-03T05:07:35;3.10;99.90
37998;DHT22;24079;51.824;4.682;2023-04-03T05:10:01;3.10;99.90
37998;DHT22;24079;51.824;4.682;2023-04-03T05:12:28;3.10;99.90
37998;DHT22;24079;51.824;4.682;2023-04-03T05:14:53;3.00;99.90
37998;DHT22;24079;51.824;4.682;2023-04-03T05:17:19;3.10;99.90
37998;DHT22;24079;51.824;4.682;2023-04-03T05:19:45;3.10;99.90
37998;DHT22;24079;51.824;4.682;2023-04-03T05:22:10;3.10;99.90
37998;DHT22;24079;51.824;4.682;2023-04-03T05:24:37;3.10;99.90
37998;DHT22;24079;51.824;4.682;2023-04-03T05:27:02;3.10;99.90
37998;DHT22;24079;51.824;4.682;2023-04-03T05:29:28;3.10;99.90
37998;DHT22;24079;51.824;4.682;2023-04-03T05:31:54;3.20;99.90
37998;DHT22;24079;51.824;4.682;2023-04-03T05:34:21;3.10;99.90
37998;DHT22;24079;51.824;4.682;2023-04-03T05:36:46;3.10;99.90
37998;DHT22;24079;51.824;4.682;2023-04-03T05:39:12;3.20;99.90
37998;DHT22;24079;51.824;4.682;2023-04-03T05:41:37;3.10;99.90
37998;DHT22;24079;51.824;4.682;2023-04-03T05:44:03;3.20;99.90
37998;DHT22;24079;51.824;4.682;2023-04-03T05:46:29;3.20;99.90
37998;DHT22;24079;51.824;4.682;2023-04-03T05:48:55;3.20;99.90
37998;DHT22;24079;51.824;4.682;2023-04-03T05:51:28;3.30;99.90
37998;DHT22;24079;51.824;4.682;2023-04-03T05:54:24;3.40;99.90
37998;DHT22;24079;51.824;4.682;2023-04-03T05:56:51;3.30;99.90
37998;DHT22;24079;51.824;4.682;2023-04-03T05:59:18;3.30;99.90
37998;DHT22;24079;51.824;4.682;2023-04-03T06:01:44;3.40;99.90
37998;DHT22;24079;51.824;4.682;2023-04-03T06:04:10;3.40;99.90
37998;DHT22;24079;51.824;4.682;2023-04-03T06:07:02;3.40;99.90
37998;DHT22;24079;51.824;4.682;2023-04-03T06:09:29;3.50;99.90
37998;DHT22;24079;51.824;4.682;2023-04-03T06:11:56;3.50;99.90
37998;DHT22;24079;51.824;4.682;2023-04-03T06:14:25;3.60;99.90
37998;DHT22;24079;51.824;4.682;2023-04-03T06:16:52;3.60;99.90
37998;DHT22;24079;51.824;4.682;2023-04-03T06:19:18;3.70;99.90
37998;DHT22;24079;51.824;4.682;2023-04-03T06:21:44;3.80;99.90
37998;DHT22;24079;51.824;4.682;2023-04-03T06:24:15;3.80;99.90
37998;DHT22;24079;51.824;4.682;2023-04-03T06:26:42;4.00;99.90
37998;DHT22;24079;51.824;4.682;2023-04-03T06:29:08;4.10;99.90
37998;DHT22;24079;51.824;4.682;2023-04-03T06:31:34;4.10;99.90
37998;DHT22;24079;51.824;4.682;2023-04-03T06:34:01;4.20;99.90
37998;DHT22;24079;51.824;4.682;2023-04-03T06:36:27;4.40;99.90
37998;DHT22;24079;51.824;4.682;2023-04-03T06:38:53;4.70;99.90
37998;DHT22;24079;51.824;4.682;2023-04-03T06:41:18;5.40;99.90
37998;DHT22;24079;51.824;4.682;2023-04-03T06:43:44;6.00;99.90
37998;DHT22;24079;51.824;4.682;2023-04-03T06:46:19;6.50;99.90
37998;DHT22;24079;51.824;4.682;2023-04-03T06:48:46;7.30;99.90
37998;DHT22;24079;51.824;4.682;2023-04-03T06:51:26;7.80;99.90
37998;DHT22;24079;51.824;4.682;2023-04-03T06:53:55;8.20;99.90
37998;DHT22;24079;51.824;4.682;2023-04-03T06:56:22;8.40;99.90
37998;DHT22;24079;51.824;4.682;2023-04-03T06:58:49;8.50;99.90
37998;DHT22;24079;51.824;4.682;2023-04-03T07:01:17;9.00;99.90
37998;DHT22;24079;51.824;4.682;2023-04-03T07:03:46;9.70;99.90
37998;DHT22;24079;51.824;4.682;2023-04-03T07:06:15;10.00;99.90
37998;DHT22;24079;51.824;4.682;2023-04-03T07:08:41;10.20;99.90
37998;DHT22;24079;51.824;4.682;2023-04-03T07:11:09;10.40;99.90
37998;DHT22;24079;51.824;4.682;2023-04-03T07:13:35;10.60;99.90
37998;DHT22;24079;51.824;4.682;2023-04-03T07:16:02;10.30;99.90
37998;DHT22;24079;51.824;4.682;2023-04-03T07:18:29;10.50;99.90
37998;DHT22;24079;51.824;4.682;2023-04-03T07:20:55;10.70;99.90
37998;DHT22;24079;51.824;4.682;2023-04-03T07:23:22;11.00;99.90
37998;DHT22;24079;51.824;4.682;2023-04-03T07:25:49;11.40;99.90
37998;DHT22;24079;51.824;4.682;2023-04-03T07:28:16;11.20;99.90
37998;DHT22;24079;51.824;4.682;2023-04-03T07:30:47;11.80;99.90
37998;DHT22;24079;51.824;4.682;2023-04-03T07:33:16;11.70;99.90
37998;DHT22;24079;51.824;4.682;2023-04-03T07:35:43;11.50;99.90
37998;DHT22;24079;51.824;4.682;2023-04-03T07:38:09;12.00;99.90
37998;DHT22;24079;51.824;4.682;2023-04-03T07:40:36;12.40;99.90
37998;DHT22;24079;51.824;4.682;2023-04-03T07:43:03;12.50;99.90
37998;DHT22;24079;51.824;4.682;2023-04-03T07:45:29;12.40;99.90
37998;DHT22;24079;51.824;4.682;2023-04-03T07:47:55;12.70;99.90
37998;DHT22;24079;51.824;4.682;2023-04-03T07:50:21;13.30;99.90
37998;DHT22;24079;51.824;4.682;2023-04-03T07:52:47;13.30;99.90
37998;DHT22;24079;51.824;4.682;2023-04-03T07:55:14;13.20;99.90
37998;DHT22;24079;51.824;4.682;2023-04-03T07:57:40;13.10;99.90
37998;DHT22;24079;51.824;4.682;2023-04-03T08:00:07;12.50;99.90
37998;DHT22;24079;51.824;4.682;2023-04-03T08:02:34;12.70;99.90
37998;DHT22;24079;51.824;4.682;2023-04-03T08:05:00;12.50;99.90
37998;DHT22;24079;51.824;4.682;2023-04-03T08:07:26;13.00;99.90
37998;DHT22;24079;51.824;4.682;2023-04-03T08:09:53;13.20;99.90
37998;DHT22;24079;51.824;4.682;2023-04-03T08:12:19;13.30;99.90
37998;DHT22;24079;51.824;4.682;2023-04-03T08:14:45;13.20;99.90
37998;DHT22;24079;51.824;4.682;2023-04-03T08:17:11;13.00;99.90
37998;DHT22;24079;51.824;4.682;2023-04-03T08:19:38;12.30;99.90
37998;DHT22;24079;51.824;4.682;2023-04-03T08:22:04;12.30;99.90
37998;DHT22;24079;51.824;4.682;2023-04-03T08:24:33;12.60;99.90
37998;DHT22;24079;51.824;4.682;2023-04-03T08:26:59;13.10;99.90
37998;DHT22;24079;51.824;4.682;2023-04-03T08:29:26;13.00;99.90
37998;DHT22;24079;51.824;4.682;2023-04-03T08:31:52;12.80;99.90
37998;DHT22;24079;51.824;4.682;2023-04-03T08:34:18;12.40;99.90
37998;DHT22;24079;51.824;4.682;2023-04-03T08:47:32;11.20;99.90
37998;DHT22;24079;51.824;4.682;2023-04-03T08:50:03;11.20;99.90
37998;DHT22;24079;51.824;4.682;2023-04-03T08:55:43;11.40;99.90
37998;DHT22;24079;51.824;4.682;2023-04-03T08:58:45;11.10;99.90
37998;DHT22;24079;51.824;4.682;2023-04-03T09:01:30;11.00;99.90
37998;DHT22;24079;51.824;4.682;2023-04-03T09:04:01;10.70;99.90
37998;DHT22;24079;51.824;4.682;2023-04-03T09:06:31;10.30;99.90
37998;DHT22;24079;51.824;4.682;2023-04-03T09:09:14;10.40;99.90
37998;DHT22;24079;51.824;4.682;2023-04-03T09:14:42;11.00;99.90
37998;DHT22;24079;51.824;4.682;2023-04-03T09:20:19;10.60;99.90
37998;DHT22;24079;51.824;4.682;2023-04-03T09:22:47;10.90;99.90
37998;DHT22;24079;51.824;4.682;2023-04-03T09:25:18;10.60;99.90
37998;DHT22;24079;51.824;4.682;2023-04-03T09:27:45;10.90;99.90
37998;DHT22;24079;51.824;4.682;2023-04-03T09:30:17;10.80;99.90
37998;DHT22;24079;51.824;4.682;2023-04-03T09:32:46;10.80;99.90
37998;DHT22;24079;51.824;4.682;2023-04-03T09:35:25;10.90;99.90
37998;DHT22;24079;51.824;4.682;2023-04-03T09:40:43;11.00;99.90
37998;DHT22;24079;51.824;4.682;2023-04-03T09:43:29;10.90;99.90
37998;DHT22;24079;51.824;4.682;2023-04-03T09:46:17;10.90;99.90
37998;DHT22;24079;51.824;4.682;2023-04-03T09:49:12;10.40;99.90
37998;DHT22;24079;51.824;4.682;2023-04-03T09:51:38;10.20;99.90
37998;DHT22;24079;51.824;4.682;2023-04-03T09:54:24;10.30;99.90
37998;DHT22;24079;51.824;4.682;2023-04-03T09:56:51;10.60;99.90
37998;DHT22;24079;51.824;4.682;2023-04-03T09:59:19;10.80;99.90
37998;DHT22;24079;51.824;4.682;2023-04-03T10:02:04;10.70;98.90
37998;DHT22;24079;51.824;4.682;2023-04-03T10:04:40;10.90;98.50
37998;DHT22;24079;51.824;4.682;2023-04-03T10:07:33;10.90;97.00
37998;DHT22;24079;51.824;4.682;2023-04-03T10:10:20;11.00;98.40
37998;DHT22;24079;51.824;4.682;2023-04-03T10:12:48;11.00;97.20
37998;DHT22;24079;51.824;4.682;2023-04-03T10:15:16;10.90;96.10
37998;DHT22;24079;51.824;4.682;2023-04-03T10:23:38;10.70;95.20
37998;DHT22;24079;51.824;4.682;2023-04-03T10:34:39;11.00;94.50
37998;DHT22;24079;51.824;4.682;2023-04-03T10:37:34;10.70;95.30
37998;DHT22;24079;51.824;4.682;2023-04-03T10:40:23;10.70;93.80
37998;DHT22;24079;51.824;4.682;2023-04-03T10:42:56;10.70;94.90
37998;DHT22;24079;51.824;4.682;2023-04-03T10:50:45;11.00;92.70
37998;DHT22;24079;51.824;4.682;2023-04-03T10:58:40;10.70;88.40
37998;DHT22;24079;51.824;4.682;2023-04-03T11:01:13;10.60;91.60
37998;DHT22;24079;51.824;4.682;2023-04-03T11:03:45;10.80;92.00
37998;DHT22;24079;51.824;4.682;2023-04-03T11:06:15;11.00;90.70
37998;DHT22;24079;51.824;4.682;2023-04-03T11:08:49;11.20;86.40
37998;DHT22;24079;51.824;4.682;2023-04-03T11:11:33;11.10;85.90
37998;DHT22;24079;51.824;4.682;2023-04-03T11:14:20;11.20;87.60
37998;DHT22;24079;51.824;4.682;2023-04-03T11:17:37;11.10;89.20
37998;DHT22;24079;51.824;4.682;2023-04-03T11:22:23;10.70;90.30
37998;DHT22;24079;51.824;4.682;2023-04-03T11:27:25;10.50;91.80
37998;DHT22;24079;51.824;4.682;2023-04-03T11:29:53;10.30;91.20
37998;DHT22;24079;51.824;4.682;2023-04-03T11:35:15;10.40;91.20
37998;DHT22;24079;51.824;4.682;2023-04-03T11:37:48;10.70;91.30
37998;DHT22;24079;51.824;4.682;2023-04-03T11:43:17;10.70;88.40
37998;DHT22;24079;51.824;4.682;2023-04-03T11:45:50;10.60;90.10
37998;DHT22;24079;51.824;4.682;2023-04-03T11:51:00;11.00;89.90
37998;DHT22;24079;51.824;4.682;2023-04-03T11:53:36;11.10;87.50
37998;DHT22;24079;51.824;4.682;2023-04-03T12:01:47;10.70;84.30
37998;DHT22;24079;51.824;4.682;2023-04-03T12:04:14;10.70;87.20
37998;DHT22;24079;51.824;4.682;2023-04-03T12:06:42;10.60;87.30
37998;DHT22;24079;51.824;4.682;2023-04-03T12:09:26;10.60;89.00
37998;DHT22;24079;51.824;4.682;2023-04-03T12:11:53;10.90;89.50
37998;DHT22;24079;51.824;4.682;2023-04-03T12:14:22;10.80;88.40
37998;DHT22;24079;51.824;4.682;2023-04-03T12:16:49;10.80;85.60
37998;DHT22;24079;51.824;4.682;2023-04-03T12:27:02;10.90;86.10
37998;DHT22;24079;51.824;4.682;2023-04-03T12:29:45;10.70;85.90
37998;DHT22;24079;51.824;4.682;2023-04-03T12:43:47;10.60;84.60
37998;DHT22;24079;51.824;4.682;2023-04-03T12:46:18;10.50;87.80
37998;DHT22;24079;51.824;4.682;2023-04-03T12:51:15;10.80;88.70
37998;DHT22;24079;51.824;4.682;2023-04-03T12:53:44;10.60;87.80
37998;DHT22;24079;51.824;4.682;2023-04-03T12:56:31;10.60;88.50
37998;DHT22;24079;51.824;4.682;2023-04-03T12:59:21;10.50;90.00
37998;DHT22;24079;51.824;4.682;2023-04-03T13:02:00;10.50;90.40
37998;DHT22;24079;51.824;4.682;2023-04-03T13:04:28;10.40;91.30
37998;DHT22;24079;51.824;4.682;2023-04-03T13:06:54;10.40;92.20
37998;DHT22;24079;51.824;4.682;2023-04-03T13:09:25;10.50;92.10
37998;DHT22;24079;51.824;4.682;2023-04-03T13:14:25;10.50;91.80
37998;DHT22;24079;51.824;4.682;2023-04-03T13:19:23;10.50;91.80
37998;DHT22;24079;51.824;4.682;2023-04-03T13:21:50;10.60;92.00
37998;DHT22;24079;51.824;4.682;2023-04-03T13:24:19;10.70;92.50
37998;DHT22;24079;51.824;4.682;2023-04-03T13:26:45;10.70;92.70
37998;DHT22;24079;51.824;4.682;2023-04-03T13:29:33;10.80;93.00
37998;DHT22;24079;51.824;4.682;2023-04-03T13:32:01;10.80;92.20
37998;DHT22;24079;51.824;4.682;2023-04-03T13:34:29;10.80;92.10
37998;DHT22;24079;51.824;4.682;2023-04-03T13:37:01;10.80;93.60
37998;DHT22;24079;51.824;4.682;2023-04-03T13:39:33;10.80;93.10
37998;DHT22;24079;51.824;4.682;2023-04-03T13:42:20;10.80;94.30
37998;DHT22;24079;51.824;4.682;2023-04-03T13:44:47;10.80;94.20
37998;DHT22;24079;51.824;4.682;2023-04-03T13:47:20;10.90;94.70
37998;DHT22;24079;51.824;4.682;2023-04-03T13:52:52;10.60;93.10
37998;DHT22;24079;51.824;4.682;2023-04-03T13:55:23;10.70;94.30
37998;DHT22;24079;51.824;4.682;2023-04-03T13:58:01;10.80;94.40
37998;DHT22;24079;51.824;4.682;2023-04-03T14:00:48;10.90;94.20
37998;DHT22;24079;51.824;4.682;2023-04-03T14:05:46;10.70;95.40
37998;DHT22;24079;51.824;4.682;2023-04-03T14:08:12;10.70;94.80
37998;DHT22;24079;51.824;4.682;2023-04-03T14:10:38;10.90;95.40
37998;DHT22;24079;51.824;4.682;2023-04-03T14:13:05;10.80;93.00
37998;DHT22;24079;51.824;4.682;2023-04-03T14:15:32;10.80;93.00
37998;DHT22;24079;51.824;4.682;2023-04-03T14:17:58;10.90;91.70
37998;DHT22;24079;51.824;4.682;2023-04-03T14:20:26;10.90;93.10
37998;DHT22;24079;51.824;4.682;2023-04-03T14:22:53;10.90;93.80
37998;DHT22;24079;51.824;4.682;2023-04-03T14:25:20;10.80;92.50
37998;DHT22;24079;51.824;4.682;2023-04-03T14:27:50;10.70;94.40
37998;DHT22;24079;51.824;4.682;2023-04-03T14:30:26;10.70;95.10
37998;DHT22;24079;51.824;4.682;2023-04-03T14:32:53;10.70;95.50
37998;DHT22;24079;51.824;4.682;2023-04-03T14:35:19;10.70;93.70
37998;DHT22;24079;51.824;4.682;2023-04-03T14:37:46;10.50;94.50
37998;DHT22;24079;51.824;4.682;2023-04-03T14:40:15;10.60;95.00
37998;DHT22;24079;51.824;4.682;2023-04-03T14:42:41;10.70;95.70
37998;DHT22;24079;51.824;4.682;2023-04-03T14:45:10;10.80;95.50
37998;DHT22;24079;51.824;4.682;2023-04-03T14:47:42;10.80;97.50
37998;DHT22;24079;51.824;4.682;2023-04-03T14:50:14;11.10;99.90
37998;DHT22;24079;51.824;4.682;2023-04-03T14:52:40;11.10;96.20
37998;DHT22;24079;51.824;4.682;2023-04-03T14:55:07;11.20;99.40
37998;DHT22;24079;51.824;4.682;2023-04-03T14:57:34;11.00;96.70
37998;DHT22;24079;51.824;4.682;2023-04-03T15:00:01;10.90;99.80
37998;DHT22;24079;51.824;4.682;2023-04-03T15:02:36;10.90;99.50
37998;DHT22;24079;51.824;4.682;2023-04-03T15:05:06;10.90;99.90
37998;DHT22;24079;51.824;4.682;2023-04-03T15:07:35;11.10;99.90
37998;DHT22;24079;51.824;4.682;2023-04-03T15:10:14;11.10;99.90
37998;DHT22;24079;51.824;4.682;2023-04-03T15:12:41;11.00;99.60
37998;DHT22;24079;51.824;4.682;2023-04-03T15:15:07;10.90;99.80
37998;DHT22;24079;51.824;4.682;2023-04-03T15:17:34;11.00;99.90
37998;DHT22;24079;51.824;4.682;2023-04-03T15:20:02;10.90;99.90
37998;DHT22;24079;51.824;4.682;2023-04-03T15:22:28;10.90;99.90
37998;DHT22;24079;51.824;4.682;2023-04-03T15:24:54;10.70;99.80
37998;DHT22;24079;51.824;4.682;2023-04-03T15:27:20;10.50;99.90
37998;DHT22;24079;51.824;4.682;2023-04-03T15:29:46;10.60;99.90
37998;DHT22;24079;51.824;4.682;2023-04-03T15:32:13;10.60;99.90
37998;DHT22;24079;51.824;4.682;2023-04-03T15:34:39;10.70;99.50
37998;DHT22;24079;51.824;4.682;2023-04-03T15:37:06;10.70;99.90
37998;DHT22;24079;51.824;4.682;2023-04-03T15:39:32;10.70;99.30
37998;DHT22;24079;51.824;4.682;2023-04-03T15:41:58;10.70;99.90
37998;DHT22;24079;51.824;4.682;2023-04-03T15:44:33;10.70;99.60
37998;DHT22;24079;51.824;4.682;2023-04-03T15:47:00;10.50;99.10
37998;DHT22;24079;51.824;4.682;2023-04-03T15:49:27;10.60;99.90
37998;DHT22;24079;51.824;4.682;2023-04-03T15:51:53;10.60;99.90
37998;DHT22;24079;51.824;4.682;2023-04-03T15:54:19;10.70;99.90
37998;DHT22;24079;51.824;4.682;2023-04-03T15:56:45;10.70;99.90
37998;DHT22;24079;51.824;4.682;2023-04-03T15:59:11;10.60;99.90
37998;DHT22;24079;51.824;4.682;2023-04-03T16:01:38;10.60;99.90
37998;DHT22;24079;51.824;4.682;2023-04-03T16:04:06;10.70;99.90
37998;DHT22;24079;51.824;4.682;2023-04-03T16:06:32;10.70;99.90
37998;DHT22;24079;51.824;4.682;2023-04-03T16:08:59;10.60;99.90
37998;DHT22;24079;51.824;4.682;2023-04-03T16:11:26;10.60;99.90
37998;DHT22;24079;51.824;4.682;2023-04-03T16:13:53;10.60;99.90
37998;DHT22;24079;51.824;4.682;2023-04-03T16:16:19;10.70;99.90
37998;DHT22;24079;51.824;4.682;2023-04-03T16:18:45;10.70;99.90
37998;DHT22;24079;51.824;4.682;2023-04-03T16:21:15;10.70;99.90
37998;DHT22;24079;51.824;4.682;2023-04-03T16:23:42;10.60;99.90
37998;DHT22;24079;51.824;4.682;2023-04-03T16:26:08;10.50;99.90
37998;DHT22;24079;51.824;4.682;2023-04-03T16:28:34;10.50;99.90
37998;DHT22;24079;51.824;4.682;2023-04-03T16:31:00;10.40;99.80
37998;DHT22;24079;51.824;4.682;2023-04-03T16:33:26;10.20;99.90
37998;DHT22;24079;51.824;4.682;2023-04-03T16:35:52;10.20;99.90
37998;DHT22;24079;51.824;4.682;2023-04-03T16:38:18;10.20;99.90
37998;DHT22;24079;51.824;4.682;2023-04-03T16:40:45;10.20;99.90
37998;DHT22;24079;51.824;4.682;2023-04-03T16:43:11;10.30;99.90
37998;DHT22;24079;51.824;4.682;2023-04-03T16:45:37;10.20;99.90
37998;DHT22;24079;51.824;4.682;2023-04-03T16:48:03;10.20;99.90
37998;DHT22;24079;51.824;4.682;2023-04-03T16:50:28;10.20;99.90
37998;DHT22;24079;51.824;4.682;2023-04-03T16:52:54;10.20;99.90
37998;DHT22;24079;51.824;4.682;2023-04-03T16:55:20;10.20;99.90
37998;DHT22;24079;51.824;4.682;2023-04-03T16:57:46;10.20;99.90
37998;DHT22;24079;51.824;4.682;2023-04-03T17:00:12;10.20;99.90
37998;DHT22;24079;51.824;4.682;2023-04-03T17:02:39;10.10;99.90
37998;DHT22;24079;51.824;4.682;2023-04-03T17:05:05;10.10;99.90
37998;DHT22;24079;51.824;4.682;2023-04-03T17:07:31;10.00;99.90
37998;DHT22;24079;51.824;4.682;2023-04-03T17:09:57;10.00;99.90
37998;DHT22;24079;51.824;4.682;2023-04-03T17:12:24;10.00;99.90
37998;DHT22;24079;51.824;4.682;2023-04-03T17:14:50;10.00;99.90
37998;DHT22;24079;51.824;4.682;2023-04-03T17:17:20;9.90;99.90
37998;DHT22;24079;51.824;4.682;2023-04-03T17:19:47;9.80;99.90
37998;DHT22;24079;51.824;4.682;2023-04-03T17:22:13;9.90;99.90
37998;DHT22;24079;51.824;4.682;2023-04-03T17:24:41;9.90;99.90
37998;DHT22;24079;51.824;4.682;2023-04-03T17:27:07;9.80;99.90
37998;DHT22;24079;51.824;4.682;2023-04-03T17:29:33;9.70;99.90
37998;DHT22;24079;51.824;4.682;2023-04-03T17:31:58;9.70;99.90
37998;DHT22;24079;51.824;4.682;2023-04-03T17:34:24;9.70;99.90
37998;DHT22;24079;51.824;4.682;2023-04-03T17:36:51;9.60;99.90
37998;DHT22;24079;51.824;4.682;2023-04-03T17:39:17;9.60;99.90